sensor_id;sensor_type;location;lat;lon;timestamp;temperature;humidity
28654;DHT22;24320;56.980;24.336;2023-10-09T00:02:11;4.50;99.90
28654;DHT22;24320;56.980;24.336;2023-10-09T00:04:39;4.60;99.90
28654;DHT22;24320;56.980;24.336;2023-10-09T00:07:10;4.70;99.90
28654;DHT22;24320;56.980;24.336;2023-10-09T00:09:39;4.80;99.90
28654;DHT22;24320;56.980;24.336;2023-10-09T00:12:19;4.90;99.90
28654;DHT22;24320;56.980;24.336;2023-10-09T00:14:51;5.10;99.90
28654;DHT22;24320;56.980;24.336;2023-10-09T00:17:35;5.30;99.90
28654;DHT22;24320;56.980;24.336;2023-10-09T00:20:05;5.40;99.90
28654;DHT22;24320;56.980;24.336;2023-10-09T00:22:35;5.40;99.90
28654;DHT22;24320;56.980;24.336;2023-10-09T00:25:10;5.50;99.90
28654;DHT22;24320;56.980;24.336;2023-10-09T00:27:42;5.50;99.90
28654;DHT22;24320;56.980;24.336;2023-10-09T00:30:11;5.60;99.90
28654;DHT22;24320;56.980;24.336;2023-10-09T00:32:42;5.60;99.90
28654;DHT22;24320;56.980;24.336;2023-10-09T00:35:18;5.90;99.90
28654;DHT22;24320;56.980;24.336;2023-10-09T00:38:05;6.10;99.90
28654;DHT22;24320;56.980;24.336;2023-10-09T00:40:49;6.10;99.90
28654;DHT22;24320;56.980;24.336;2023-10-09T00:43:24;6.10;99.90
28654;DHT22;24320;56.980;24.336;2023-10-09T00:46:00;6.00;99.90
28654;DHT22;24320;56.980;24.336;2023-10-09T00:48:39;5.90;99.90
28654;DHT22;24320;56.980;24.336;2023-10-09T00:51:09;5.80;99.90
28654;DHT22;24320;56.980;24.336;2023-10-09T00:53:48;5.80;99.90
28654;DHT22;24320;56.980;24.336;2023-10-09T00:56:20;5.70;99.90
28654;DHT22;24320;56.980;24.336;2023-10-09T00:58:54;5.60;99.90
28654;DHT22;24320;56.980;24.336;2023-10-09T01:01:35;5.60;99.90
28654;DHT22;24320;56.980;24.336;2023-10-09T01:04:06;5.80;99.90
28654;DHT22;24320;56.980;24.336;2023-10-09T01:06:46;5.90;99.90
28654;DHT22;24320;56.980;24.336;2023-10-09T01:09:31;6.00;99.90
28654;DHT22;24320;56.980;24.336;2023-10-09T01:12:05;6.00;99.90
28654;DHT22;24320;56.980;24.336;2023-10-09T01:14:32;6.10;99.90
28654;DHT22;24320;56.980;24.336;2023-10-09T01:17:04;6.20;99.90
28654;DHT22;24320;56.980;24.336;2023-10-09T01:20:04;6.10;99.90
28654;DHT22;24320;56.980;24.336;2023-10-09T01:22:32;6.10;99.90
28654;DHT22;24320;56.980;24.336;2023-10-09T01:24:59;6.00;99.90
28654;DHT22;24320;56.980;24.336;2023-10-09T01:27:26;5.90;99.90
28654;DHT22;24320;56.980;24.336;2023-10-09T01:29:59;5.90;99.90
28654;DHT22;24320;56.980;24.336;2023-10-09T01:32:27;5.80;99.90
28654;DHT22;24320;56.980;24.336;2023-10-09T01:34:54;5.80;99.90
28654;DHT22;24320;56.980;24.336;2023-10-09T01:37:24;5.70;99.90
28654;DHT22;24320;56.980;24.336;2023-10-09T01:39:58;5.70;99.90
28654;DHT22;24320;56.980;24.336;2023-10-09T01:42:26;5.70;99.90
28654;DHT22;24320;56.980;24.336;2023-10-09T01:45:12;5.80;99.90
28654;DHT22;24320;56.980;24.336;2023-10-09T01:47:46;5.90;99.90
28654;DHT22;24320;56.980;24.336;2023-10-09T01:50:19;6.00;99.90
28654;DHT22;24320;56.980;24.336;2023-10-09T01:52:51;6.20;99.90
28654;DHT22;24320;56.980;24.336;2023-10-09T01:55:19;6.20;99.90
28654;DHT22;24320;56.980;24.336;2023-10-09T01:58:00;6.20;99.90
28654;DHT22;24320;56.980;24.336;2023-10-09T02:00:32;6.10;99.90
28654;DHT22;24320;56.980;24.336;2023-10-09T02:03:02;6.00;99.90
28654;DHT22;24320;56.980;24.336;2023-10-09T02:05:31;6.00;99.90
28654;DHT22;24320;56.980;24.336;2023-10-09T02:08:00;6.00;99.90
28654;DHT22;24320;56.980;24.336;2023-10-09T02:10:29;6.00;99.90
28654;DHT22;24320;56.980;24.336;2023-10-09T02:13:00;6.10;99.90
28654;DHT22;24320;56.980;24.336;2023-10-09T02:15:38;6.10;99.90
28654;DHT22;24320;56.980;24.336;2023-10-09T02:20:52;6.10;99.90
28654;DHT22;24320;56.980;24.336;2023-10-09T02:23:33;6.10;99.90
28654;DHT22;24320;56.980;24.336;2023-10-09T02:26:07;6.00;99.90
28654;DHT22;24320;56.980;24.336;2023-10-09T02:28:36;6.00;99.90
28654;DHT22;24320;56.980;24.336;2023-10-09T02:31:12;6.00;99.90
28654;DHT22;24320;56.980;24.336;2023-10-09T02:33:40;5.90;99.90
28654;DHT22;24320;56.980;24.336;2023-10-09T02:36:08;5.90;99.90
28654;DHT22;24320;56.980;24.336;2023-10-09T02:38:35;5.90;99.90
28654;DHT22;24320;56.980;24.336;2023-10-09T02:41:05;5.90;99.90
28654;DHT22;24320;56.980;24.336;2023-10-09T02:43:34;5.80;99.90
28654;DHT22;24320;56.980;24.336;2023-10-09T02:46:07;5.60;99.90
28654;DHT22;24320;56.980;24.336;2023-10-09T02:49:09;5.40;99.90
28654;DHT22;24320;56.980;24.336;2023-10-09T02:51:43;5.30;99.90
28654;DHT22;24320;56.980;24.336;2023-10-09T02:54:10;5.20;99.90
28654;DHT22;24320;56.980;24.336;2023-10-09T02:56:52;5.10;99.90
28654;DHT22;24320;56.980;24.336;2023-10-09T02:59:34;5.00;99.90
28654;DHT22;24320;56.980;24.336;2023-10-09T03:02:04;5.00;99.90
28654;DHT22;24320;56.980;24.336;2023-10-09T03:04:31;5.00;99.90
28654;DHT22;24320;56.980;24.336;2023-10-09T03:06:58;4.90;99.90
28654;DHT22;24320;56.980;24.336;2023-10-09T03:09:26;4.90;99.90
28654;DHT22;24320;56.980;24.336;2023-10-09T03:12:03;4.90;99.90
28654;DHT22;24320;56.980;24.336;2023-10-09T03:14:32;4.90;99.90
28654;DHT22;24320;56.980;24.336;2023-10-09T03:17:02;4.80;99.90
28654;DHT22;24320;56.980;24.336;2023-10-09T03:19:31;4.90;99.90
28654;DHT22;24320;56.980;24.336;2023-10-09T03:22:06;4.90;99.90
28654;DHT22;24320;56.980;24.336;2023-10-09T03:24:40;4.90;99.90
28654;DHT22;24320;56.980;24.336;2023-10-09T03:27:17;5.00;99.90
28654;DHT22;24320;56.980;24.336;2023-10-09T03:29:44;4.80;99.90
28654;DHT22;24320;56.980;24.336;2023-10-09T03:32:17;4.80;99.90
28654;DHT22;24320;56.980;24.336;2023-10-09T03:34:46;4.70;99.90
28654;DHT22;24320;56.980;24.336;2023-10-09T03:37:16;4.60;99.90
28654;DHT22;24320;56.980;24.336;2023-10-09T03:40:01;4.50;99.90
28654;DHT22;24320;56.980;24.336;2023-10-09T03:42:29;4.50;99.90
28654;DHT22;24320;56.980;24.336;2023-10-09T03:44:57;4.50;99.90
28654;DHT22;24320;56.980;24.336;2023-10-09T03:47:24;4.40;99.90
28654;DHT22;24320;56.980;24.336;2023-10-09T03:49:54;4.40;99.90
28654;DHT22;24320;56.980;24.336;2023-10-09T03:52:23;4.40;99.90
28654;DHT22;24320;56.980;24.336;2023-10-09T03:54:53;4.40;99.90
28654;DHT22;24320;56.980;24.336;2023-10-09T03:57:22;4.30;99.90
28654;DHT22;24320;56.980;24.336;2023-10-09T03:59:50;4.40;99.90
28654;DHT22;24320;56.980;24.336;2023-10-09T04:02:19;4.30;99.90
28654;DHT22;24320;56.980;24.336;2023-10-09T04:04:49;4.50;99.90
28654;DHT22;24320;56.980;24.336;2023-10-09T04:07:18;4.60;99.90
28654;DHT22;24320;56.980;24.336;2023-10-09T04:09:46;4.70;99.90
28654;DHT22;24320;56.980;24.336;2023-10-09T04:12:18;4.80;99.90
28654;DHT22;24320;56.980;24.336;2023-10-09T04:14:52;4.80;99.90
28654;DHT22;24320;56.980;24.336;2023-10-09T04:17:25;4.90;99.90
28654;DHT22;24320;56.980;24.336;2023-10-09T04:20:03;4.90;99.90
28654;DHT22;24320;56.980;24.336;2023-10-09T04:22:47;5.00;99.90
28654;DHT22;24320;56.980;24.336;2023-10-09T04:25:33;4.90;99.90
28654;DHT22;24320;56.980;24.336;2023-10-09T04:28:10;4.90;99.90
28654;DHT22;24320;56.980;24.336;2023-10-09T04:30:46;4.80;99.90
28654;DHT22;24320;56.980;24.336;2023-10-09T04:33:14;4.70;99.90
28654;DHT22;24320;56.980;24.336;2023-10-09T04:36:08;4.60;99.90
28654;DHT22;24320;56.980;24.336;2023-10-09T04:38:58;4.50;99.90
28654;DHT22;24320;56.980;24.336;2023-10-09T04:41:31;4.50;99.90
28654;DHT22;24320;56.980;24.336;2023-10-09T04:44:19;4.40;99.90
28654;DHT22;24320;56.980;24.336;2023-10-09T04:46:51;4.30;99.90
28654;DHT22;24320;56.980;24.336;2023-10-09T04:49:41;4.30;99.90
28654;DHT22;24320;56.980;24.336;2023-10-09T04:52:23;4.30;99.90
28654;DHT22;24320;56.980;24.336;2023-10-09T04:54:58;4.20;99.90
28654;DHT22;24320;56.980;24.336;2023-10-09T04:57:46;4.20;99.90
28654;DHT22;24320;56.980;24.336;2023-10-09T05:00:18;4.20;99.90
28654;DHT22;24320;56.980;24.336;2023-10-09T05:03:00;4.20;99.90
28654;DHT22;24320;56.980;24.336;2023-10-09T05:05:52;4.30;99.90
28654;DHT22;24320;56.980;24.336;2023-10-09T05:08:48;4.40;99.90
28654;DHT22;24320;56.980;24.336;2023-10-09T05:11:15;4.50;99.90
28654;DHT22;24320;56.980;24.336;2023-10-09T05:14:01;4.50;99.90
28654;DHT22;24320;56.980;24.336;2023-10-09T05:16:40;4.60;99.90
28654;DHT22;24320;56.980;24.336;2023-10-09T05:19:22;4.60;99.90
28654;DHT22;24320;56.980;24.336;2023-10-09T05:22:11;4.70;99.90
28654;DHT22;24320;56.980;24.336;2023-10-09T05:25:03;4.70;99.90
28654;DHT22;24320;56.980;24.336;2023-10-09T05:27:43;4.70;99.90
28654;DHT22;24320;56.980;24.336;2023-10-09T05:30:17;4.80;99.90
28654;DHT22;24320;56.980;24.336;2023-10-09T05:32:55;4.80;99.90
28654;DHT22;24320;56.980;24.336;2023-10-09T05:35:26;4.80;99.90
28654;DHT22;24320;56.980;24.336;2023-10-09T05:38:25;4.90;99.90
28654;DHT22;24320;56.980;24.336;2023-10-09T05:40:53;4.90;99.90
28654;DHT22;24320;56.980;24.336;2023-10-09T05:43:39;4.80;99.90
28654;DHT22;24320;56.980;24.336;2023-10-09T05:46:25;4.90;99.90
28654;DHT22;24320;56.980;24.336;2023-10-09T05:49:02;4.90;99.90
28654;DHT22;24320;56.980;24.336;2023-10-09T05:51:47;5.00;99.90
28654;DHT22;24320;56.980;24.336;2023-10-09T05:54:20;5.10;99.90
28654;DHT22;24320;56.980;24.336;2023-10-09T05:57:26;5.20;99.90
28654;DHT22;24320;56.980;24.336;2023-10-09T06:00:12;5.30;99.90
28654;DHT22;24320;56.980;24.336;2023-10-09T06:02:58;5.40;99.90
28654;DHT22;24320;56.980;24.336;2023-10-09T06:08:30;5.60;99.90
28654;DHT22;24320;56.980;24.336;2023-10-09T06:11:11;5.70;99.90
28654;DHT22;24320;56.980;24.336;2023-10-09T06:13:59;5.80;99.90
28654;DHT22;24320;56.980;24.336;2023-10-09T06:16:36;5.90;99.90
28654;DHT22;24320;56.980;24.336;2023-10-09T06:19:06;6.20;99.90
28654;DHT22;24320;56.980;24.336;2023-10-09T06:21:39;6.70;99.90
28654;DHT22;24320;56.980;24.336;2023-10-09T06:24:26;7.10;99.90
28654;DHT22;24320;56.980;24.336;2023-10-09T06:27:12;7.40;99.90
28654;DHT22;24320;56.980;24.336;2023-10-09T06:29:41;7.70;99.90
28654;DHT22;24320;56.980;24.336;2023-10-09T06:32:12;7.90;99.90
28654;DHT22;24320;56.980;24.336;2023-10-09T06:34:47;7.90;99.90
28654;DHT22;24320;56.980;24.336;2023-10-09T06:37:25;7.80;99.90
28654;DHT22;24320;56.980;24.336;2023-10-09T06:39:56;7.50;99.90
28654;DHT22;24320;56.980;24.336;2023-10-09T06:42:23;7.30;99.90
28654;DHT22;24320;56.980;24.336;2023-10-09T06:45:04;7.10;99.90
28654;DHT22;24320;56.980;24.336;2023-10-09T06:47:50;7.00;99.90
28654;DHT22;24320;56.980;24.336;2023-10-09T06:50:35;6.90;99.90
28654;DHT22;24320;56.980;24.336;2023-10-09T06:53:21;6.80;99.90
28654;DHT22;24320;56.980;24.336;2023-10-09T06:55:53;6.70;99.90
28654;DHT22;24320;56.980;24.336;2023-10-09T06:58:41;6.60;99.90
28654;DHT22;24320;56.980;24.336;2023-10-09T07:01:14;6.60;99.90
28654;DHT22;24320;56.980;24.336;2023-10-09T07:04:12;6.60;99.90
28654;DHT22;24320;56.980;24.336;2023-10-09T07:06:57;6.70;99.90
28654;DHT22;24320;56.980;24.336;2023-10-09T07:09:26;6.80;99.90
28654;DHT22;24320;56.980;24.336;2023-10-09T07:12:34;6.90;99.90
28654;DHT22;24320;56.980;24.336;2023-10-09T07:15:09;6.90;99.90
28654;DHT22;24320;56.980;24.336;2023-10-09T07:17:59;7.00;99.90
28654;DHT22;24320;56.980;24.336;2023-10-09T07:20:46;7.20;99.90
28654;DHT22;24320;56.980;24.336;2023-10-09T07:23:26;7.40;99.90
28654;DHT22;24320;56.980;24.336;2023-10-09T07:26:03;7.60;99.90
28654;DHT22;24320;56.980;24.336;2023-10-09T07:28:46;7.70;99.90
28654;DHT22;24320;56.980;24.336;2023-10-09T07:31:19;7.80;99.90
28654;DHT22;24320;56.980;24.336;2023-10-09T07:34:07;7.80;99.90
28654;DHT22;24320;56.980;24.336;2023-10-09T07:36:55;7.70;99.90
28654;DHT22;24320;56.980;24.336;2023-10-09T07:39:23;7.40;99.90
28654;DHT22;24320;56.980;24.336;2023-10-09T07:41:51;7.30;99.90
28654;DHT22;24320;56.980;24.336;2023-10-09T07:44:34;7.50;99.90
28654;DHT22;24320;56.980;24.336;2023-10-09T07:47:05;7.60;99.90
28654;DHT22;24320;56.980;24.336;2023-10-09T07:49:47;7.70;99.90
28654;DHT22;24320;56.980;24.336;2023-10-09T07:52:21;7.80;99.90
28654;DHT22;24320;56.980;24.336;2023-10-09T07:54:49;7.80;99.90
28654;DHT22;24320;56.980;24.336;2023-10-09T07:57:29;7.70;99.90
28654;DHT22;24320;56.980;24.336;2023-10-09T08:00:06;7.60;99.90
28654;DHT22;24320;56.980;24.336;2023-10-09T08:03:02;7.40;99.90
28654;DHT22;24320;56.980;24.336;2023-10-09T08:05:36;7.20;99.90
28654;DHT22;24320;56.980;24.336;2023-10-09T08:08:11;6.80;99.90
28654;DHT22;24320;56.980;24.336;2023-10-09T08:11:08;6.50;99.90
28654;DHT22;24320;56.980;24.336;2023-10-09T08:13:53;6.30;99.90
28654;DHT22;24320;56.980;24.336;2023-10-09T08:16:23;6.20;99.90
28654;DHT22;24320;56.980;24.336;2023-10-09T08:18:54;6.20;99.90
28654;DHT22;24320;56.980;24.336;2023-10-09T08:21:24;6.20;99.90
28654;DHT22;24320;56.980;24.336;2023-10-09T08:24:09;6.20;99.90
28654;DHT22;24320;56.980;24.336;2023-10-09T08:26:56;6.30;99.90
28654;DHT22;24320;56.980;24.336;2023-10-09T08:29:43;6.40;99.90
28654;DHT22;24320;56.980;24.336;2023-10-09T08:32:13;6.50;99.90
28654;DHT22;24320;56.980;24.336;2023-10-09T08:35:04;6.60;99.90
28654;DHT22;24320;56.980;24.336;2023-10-09T08:40:08;6.90;99.90
28654;DHT22;24320;56.980;24.336;2023-10-09T08:42:37;6.90;99.90
28654;DHT22;24320;56.980;24.336;2023-10-09T08:45:06;6.80;99.90
28654;DHT22;24320;56.980;24.336;2023-10-09T08:47:34;6.70;99.90
28654;DHT22;24320;56.980;24.336;2023-10-09T08:50:02;6.50;99.90
28654;DHT22;24320;56.980;24.336;2023-10-09T08:52:30;6.30;99.90
28654;DHT22;24320;56.980;24.336;2023-10-09T08:54:59;6.20;99.90
28654;DHT22;24320;56.980;24.336;2023-10-09T08:57:26;6.10;99.90
28654;DHT22;24320;56.980;24.336;2023-10-09T08:59:54;6.00;99.90
28654;DHT22;24320;56.980;24.336;2023-10-09T09:02:23;6.00;99.90
28654;DHT22;24320;56.980;24.336;2023-10-09T09:04:51;5.90;99.90
28654;DHT22;24320;56.980;24.336;2023-10-09T09:07:25;5.90;99.90
28654;DHT22;24320;56.980;24.336;2023-10-09T09:10:00;5.90;99.90
28654;DHT22;24320;56.980;24.336;2023-10-09T09:12:48;5.90;99.90
28654;DHT22;24320;56.980;24.336;2023-10-09T09:15:27;5.90;99.90
28654;DHT22;24320;56.980;24.336;2023-10-09T09:18:05;5.90;99.90
28654;DHT22;24320;56.980;24.336;2023-10-09T09:20:38;5.90;99.90
28654;DHT22;24320;56.980;24.336;2023-10-09T09:23:11;6.10;99.90
28654;DHT22;24320;56.980;24.336;2023-10-09T09:25:41;6.20;99.90
28654;DHT22;24320;56.980;24.336;2023-10-09T09:28:12;6.40;99.90
28654;DHT22;24320;56.980;24.336;2023-10-09T09:30:42;6.60;99.90
28654;DHT22;24320;56.980;24.336;2023-10-09T09:33:23;6.90;99.90
28654;DHT22;24320;56.980;24.336;2023-10-09T09:36:09;7.20;99.90
28654;DHT22;24320;56.980;24.336;2023-10-09T09:38:39;7.50;99.90
28654;DHT22;24320;56.980;24.336;2023-10-09T09:41:16;7.80;99.90
28654;DHT22;24320;56.980;24.336;2023-10-09T09:43:59;8.30;99.90
28654;DHT22;24320;56.980;24.336;2023-10-09T09:46:34;8.60;99.90
28654;DHT22;24320;56.980;24.336;2023-10-09T09:49:04;8.50;99.90
28654;DHT22;24320;56.980;24.336;2023-10-09T09:51:33;8.20;99.90
28654;DHT22;24320;56.980;24.336;2023-10-09T09:54:01;7.60;99.90
28654;DHT22;24320;56.980;24.336;2023-10-09T09:56:30;7.10;99.90
28654;DHT22;24320;56.980;24.336;2023-10-09T09:59:02;6.70;99.90
28654;DHT22;24320;56.980;24.336;2023-10-09T10:01:32;6.30;99.90
28654;DHT22;24320;56.980;24.336;2023-10-09T10:04:12;6.10;99.90
28654;DHT22;24320;56.980;24.336;2023-10-09T10:06:43;6.10;99.90
28654;DHT22;24320;56.980;24.336;2023-10-09T10:09:37;5.90;99.90
28654;DHT22;24320;56.980;24.336;2023-10-09T10:12:06;5.80;99.90
28654;DHT22;24320;56.980;24.336;2023-10-09T10:20:26;5.80;99.90
28654;DHT22;24320;56.980;24.336;2023-10-09T10:23:15;5.80;99.90
28654;DHT22;24320;56.980;24.336;2023-10-09T10:25:47;5.90;99.90
28654;DHT22;24320;56.980;24.336;2023-10-09T10:31:05;5.90;99.90
28654;DHT22;24320;56.980;24.336;2023-10-09T10:36:23;6.00;99.90
28654;DHT22;24320;56.980;24.336;2023-10-09T10:39:05;6.00;99.90
28654;DHT22;24320;56.980;24.336;2023-10-09T10:41:37;6.10;99.90
28654;DHT22;24320;56.980;24.336;2023-10-09T10:44:30;6.20;99.90
28654;DHT22;24320;56.980;24.336;2023-10-09T10:47:27;6.30;99.90
28654;DHT22;24320;56.980;24.336;2023-10-09T10:50:01;6.40;99.90
28654;DHT22;24320;56.980;24.336;2023-10-09T10:52:49;6.50;99.90
28654;DHT22;24320;56.980;24.336;2023-10-09T10:55:25;6.50;99.90
28654;DHT22;24320;56.980;24.336;2023-10-09T10:57:58;6.60;99.90
28654;DHT22;24320;56.980;24.336;2023-10-09T11:00:40;6.70;99.90
28654;DHT22;24320;56.980;24.336;2023-10-09T11:03:26;6.90;99.90
28654;DHT22;24320;56.980;24.336;2023-10-09T11:06:11;7.00;99.90
28654;DHT22;24320;56.980;24.336;2023-10-09T11:08:46;7.30;99.90
28654;DHT22;24320;56.980;24.336;2023-10-09T11:11:23;7.40;99.90
28654;DHT22;24320;56.980;24.336;2023-10-09T11:14:09;7.60;99.90
28654;DHT22;24320;56.980;24.336;2023-10-09T11:16:42;7.70;99.90
28654;DHT22;24320;56.980;24.336;2023-10-09T11:19:12;7.80;99.90
28654;DHT22;24320;56.980;24.336;2023-10-09T11:22:01;8.00;99.90
28654;DHT22;24320;56.980;24.336;2023-10-09T11:24:34;8.20;99.90
28654;DHT22;24320;56.980;24.336;2023-10-09T11:27:05;8.40;99.90
28654;DHT22;24320;56.980;24.336;2023-10-09T11:29:33;8.60;99.90
28654;DHT22;24320;56.980;24.336;2023-10-09T11:32:16;8.70;99.90
28654;DHT22;24320;56.980;24.336;2023-10-09T11:34:51;8.80;99.90
28654;DHT22;24320;56.980;24.336;2023-10-09T11:37:28;8.80;99.90
28654;DHT22;24320;56.980;24.336;2023-10-09T11:39:59;8.70;99.90
28654;DHT22;24320;56.980;24.336;2023-10-09T11:42:28;8.60;99.90
28654;DHT22;24320;56.980;24.336;2023-10-09T11:45:22;8.30;99.90
28654;DHT22;24320;56.980;24.336;2023-10-09T11:47:57;7.80;99.90
28654;DHT22;24320;56.980;24.336;2023-10-09T11:50:43;7.60;99.90
28654;DHT22;24320;56.980;24.336;2023-10-09T11:53:23;7.50;99.90
28654;DHT22;24320;56.980;24.336;2023-10-09T11:55:51;7.50;99.90
28654;DHT22;24320;56.980;24.336;2023-10-09T11:58:21;7.70;99.90
28654;DHT22;24320;56.980;24.336;2023-10-09T12:00:52;7.80;99.90
28654;DHT22;24320;56.980;24.336;2023-10-09T12:03:27;7.90;99.90
28654;DHT22;24320;56.980;24.336;2023-10-09T12:06:01;7.90;99.90
28654;DHT22;24320;56.980;24.336;2023-10-09T12:08:33;8.00;99.90
28654;DHT22;24320;56.980;24.336;2023-10-09T12:11:02;8.00;99.90
28654;DHT22;24320;56.980;24.336;2023-10-09T12:13:30;8.00;99.90
28654;DHT22;24320;56.980;24.336;2023-10-09T12:15:58;8.00;99.90
28654;DHT22;24320;56.980;24.336;2023-10-09T12:18:25;7.90;99.90
28654;DHT22;24320;56.980;24.336;2023-10-09T12:20:52;8.00;99.90
28654;DHT22;24320;56.980;24.336;2023-10-09T12:23:22;8.10;99.90
28654;DHT22;24320;56.980;24.336;2023-10-09T12:25:50;8.10;99.90
28654;DHT22;24320;56.980;24.336;2023-10-09T12:28:17;7.90;99.90
28654;DHT22;24320;56.980;24.336;2023-10-09T12:30:48;7.90;99.90
28654;DHT22;24320;56.980;24.336;2023-10-09T12:33:19;7.90;99.90
28654;DHT22;24320;56.980;24.336;2023-10-09T12:35:54;8.00;99.90
28654;DHT22;24320;56.980;24.336;2023-10-09T12:38:28;8.10;99.90
28654;DHT22;24320;56.980;24.336;2023-10-09T12:46:15;8.10;99.90
28654;DHT22;24320;56.980;24.336;2023-10-09T12:48:44;8.10;99.90
28654;DHT22;24320;56.980;24.336;2023-10-09T12:51:14;8.00;99.90
28654;DHT22;24320;56.980;24.336;2023-10-09T12:53:46;8.00;99.90
28654;DHT22;24320;56.980;24.336;2023-10-09T12:56:15;8.00;99.90
28654;DHT22;24320;56.980;24.336;2023-10-09T12:58:45;7.80;99.90
28654;DHT22;24320;56.980;24.336;2023-10-09T13:01:20;7.80;99.90
28654;DHT22;24320;56.980;24.336;2023-10-09T13:03:47;7.80;99.90
28654;DHT22;24320;56.980;24.336;2023-10-09T13:06:18;7.70;99.90
28654;DHT22;24320;56.980;24.336;2023-10-09T13:08:51;7.60;99.90
28654;DHT22;24320;56.980;24.336;2023-10-09T13:11:18;7.50;99.90
28654;DHT22;24320;56.980;24.336;2023-10-09T13:13:48;7.40;99.90
28654;DHT22;24320;56.980;24.336;2023-10-09T13:16:22;7.30;99.90
28654;DHT22;24320;56.980;24.336;2023-10-09T13:18:54;7.30;99.90
28654;DHT22;24320;56.980;24.336;2023-10-09T13:21:25;7.30;99.90
28654;DHT22;24320;56.980;24.336;2023-10-09T13:23:53;7.30;99.90
28654;DHT22;24320;56.980;24.336;2023-10-09T13:26:24;7.20;99.90
28654;DHT22;24320;56.980;24.336;2023-10-09T13:29:02;7.20;99.90
28654;DHT22;24320;56.980;24.336;2023-10-09T13:31:30;7.10;99.90
28654;DHT22;24320;56.980;24.336;2023-10-09T13:34:02;7.00;99.90
28654;DHT22;24320;56.980;24.336;2023-10-09T13:36:37;7.00;99.90
28654;DHT22;24320;56.980;24.336;2023-10-09T13:39:07;7.00;99.90
28654;DHT22;24320;56.980;24.336;2023-10-09T13:41:56;7.00;99.90
28654;DHT22;24320;56.980;24.336;2023-10-09T13:44:28;7.10;99.90
28654;DHT22;24320;56.980;24.336;2023-10-09T13:47:03;7.20;99.90
28654;DHT22;24320;56.980;24.336;2023-10-09T13:49:33;7.30;99.90
28654;DHT22;24320;56.980;24.336;2023-10-09T13:52:02;7.40;99.90
28654;DHT22;24320;56.980;24.336;2023-10-09T13:54:30;7.40;99.90
28654;DHT22;24320;56.980;24.336;2023-10-09T13:57:03;7.50;99.90
28654;DHT22;24320;56.980;24.336;2023-10-09T13:59:35;7.60;99.90
28654;DHT22;24320;56.980;24.336;2023-10-09T14:02:03;7.70;99.90
28654;DHT22;24320;56.980;24.336;2023-10-09T14:04:47;7.90;99.90
28654;DHT22;24320;56.980;24.336;2023-10-09T14:07:15;8.20;99.90
28654;DHT22;24320;56.980;24.336;2023-10-09T14:09:47;8.40;99.90
28654;DHT22;24320;56.980;24.336;2023-10-09T14:12:34;8.50;99.90
28654;DHT22;24320;56.980;24.336;2023-10-09T14:15:07;8.70;99.90
28654;DHT22;24320;56.980;24.336;2023-10-09T14:17:38;8.80;99.90
28654;DHT22;24320;56.980;24.336;2023-10-09T14:20:10;8.80;99.90
28654;DHT22;24320;56.980;24.336;2023-10-09T14:22:59;8.90;99.90
28654;DHT22;24320;56.980;24.336;2023-10-09T14:25:34;8.90;99.90
28654;DHT22;24320;56.980;24.336;2023-10-09T14:28:07;8.90;99.90
28654;DHT22;24320;56.980;24.336;2023-10-09T14:30:38;8.90;99.90
28654;DHT22;24320;56.980;24.336;2023-10-09T14:33:11;8.90;99.90
28654;DHT22;24320;56.980;24.336;2023-10-09T14:35:50;8.80;99.90
28654;DHT22;24320;56.980;24.336;2023-10-09T14:38:19;8.80;99.90
28654;DHT22;24320;56.980;24.336;2023-10-09T14:40:53;8.70;99.90
28654;DHT22;24320;56.980;24.336;2023-10-09T14:43:24;8.60;99.90
28654;DHT22;24320;56.980;24.336;2023-10-09T14:45:54;8.60;99.90
28654;DHT22;24320;56.980;24.336;2023-10-09T14:48:22;8.60;99.90
28654;DHT22;24320;56.980;24.336;2023-10-09T14:50:53;8.60;99.90
28654;DHT22;24320;56.980;24.336;2023-10-09T14:53:21;8.60;99.90
28654;DHT22;24320;56.980;24.336;2023-10-09T14:58:20;8.60;99.90
28654;DHT22;24320;56.980;24.336;2023-10-09T15:00:47;8.60;99.90
28654;DHT22;24320;56.980;24.336;2023-10-09T15:03:14;8.60;99.90
28654;DHT22;24320;56.980;24.336;2023-10-09T15:05:42;8.70;99.90
28654;DHT22;24320;56.980;24.336;2023-10-09T15:08:09;8.70;99.90
28654;DHT22;24320;56.980;24.336;2023-10-09T15:10:51;8.60;99.90
28654;DHT22;24320;56.980;24.336;2023-10-09T15:13:23;8.40;99.90
28654;DHT22;24320;56.980;24.336;2023-10-09T15:15:55;8.20;99.90
28654;DHT22;24320;56.980;24.336;2023-10-09T15:18:22;8.00;99.90
28654;DHT22;24320;56.980;24.336;2023-10-09T15:20:49;7.70;99.90
28654;DHT22;24320;56.980;24.336;2023-10-09T15:23:18;7.60;99.90
28654;DHT22;24320;56.980;24.336;2023-10-09T15:25:46;7.40;99.90
28654;DHT22;24320;56.980;24.336;2023-10-09T15:28:16;7.30;99.90
28654;DHT22;24320;56.980;24.336;2023-10-09T15:30:44;7.20;99.90
28654;DHT22;24320;56.980;24.336;2023-10-09T15:33:15;7.10;99.90
28654;DHT22;24320;56.980;24.336;2023-10-09T15:35:44;7.00;99.90
28654;DHT22;24320;56.980;24.336;2023-10-09T15:38:13;6.90;99.90
28654;DHT22;24320;56.980;24.336;2023-10-09T15:40:41;6.80;99.90
28654;DHT22;24320;56.980;24.336;2023-10-09T15:43:11;6.80;99.90
28654;DHT22;24320;56.980;24.336;2023-10-09T15:45:44;6.70;99.90
28654;DHT22;24320;56.980;24.336;2023-10-09T15:48:11;6.70;99.90
28654;DHT22;24320;56.980;24.336;2023-10-09T15:50:44;6.60;99.90
28654;DHT22;24320;56.980;24.336;2023-10-09T15:53:15;6.60;99.90
28654;DHT22;24320;56.980;24.336;2023-10-09T15:55:45;6.60;99.90
28654;DHT22;24320;56.980;24.336;2023-10-09T15:58:13;6.50;99.90
28654;DHT22;24320;56.980;24.336;2023-10-09T16:00:43;6.50;99.90
28654;DHT22;24320;56.980;24.336;2023-10-09T16:03:11;6.50;99.90
28654;DHT22;24320;56.980;24.336;2023-10-09T16:05:41;6.50;99.90
28654;DHT22;24320;56.980;24.336;2023-10-09T16:08:08;6.50;99.90
28654;DHT22;24320;56.980;24.336;2023-10-09T16:10:36;6.50;99.90
28654;DHT22;24320;56.980;24.336;2023-10-09T16:13:03;6.50;99.90
28654;DHT22;24320;56.980;24.336;2023-10-09T16:15:31;6.50;99.90
28654;DHT22;24320;56.980;24.336;2023-10-09T16:17:59;6.50;99.90
